sensor_id;sensor_type;location;lat;lon;timestamp;pressure;altitude;pressure_sealevel;temperature
15079;BMP180;6932;51.438;5.470;2024-01-25T00:01:34;102376.00;;;15.20
15079;BMP180;6932;51.438;5.470;2024-01-25T00:04:00;102387.00;;;15.20
15079;BMP180;6932;51.438;5.470;2024-01-25T00:06:26;102388.00;;;15.20
15079;BMP180;6932;51.438;5.470;2024-01-25T00:08:52;102376.00;;;15.10
15079;BMP180;6932;51.438;5.470;2024-01-25T00:11:18;102371.00;;;15.20
15079;BMP180;6932;51.438;5.470;2024-01-25T00:13:43;102375.00;;;15.10
15079;BMP180;6932;51.438;5.470;2024-01-25T00:16:09;102375.00;;;15.10
15079;BMP180;6932;51.438;5.470;2024-01-25T00:18:35;102384.00;;;15.10
15079;BMP180;6932;51.438;5.470;2024-01-25T00:21:00;102382.00;;;15.10
15079;BMP180;6932;51.438;5.470;2024-01-25T00:23:26;102383.00;;;15.00
15079;BMP180;6932;51.438;5.470;2024-01-25T00:25:52;102374.00;;;15.00
15079;BMP180;6932;51.438;5.470;2024-01-25T00:28:18;102375.00;;;15.00
15079;BMP180;6932;51.438;5.470;2024-01-25T00:30:43;102399.00;;;15.00
15079;BMP180;6932;51.438;5.470;2024-01-25T00:33:09;102408.00;;;14.90
15079;BMP180;6932;51.438;5.470;2024-01-25T00:35:35;102394.00;;;14.90
15079;BMP180;6932;51.438;5.470;2024-01-25T00:38:01;102385.00;;;14.90
15079;BMP180;6932;51.438;5.470;2024-01-25T00:40:27;102394.00;;;14.90
15079;BMP180;6932;51.438;5.470;2024-01-25T00:42:53;102376.00;;;14.80
15079;BMP180;6932;51.438;5.470;2024-01-25T00:45:21;102384.00;;;14.80
15079;BMP180;6932;51.438;5.470;2024-01-25T00:47:48;102373.00;;;14.80
15079;BMP180;6932;51.438;5.470;2024-01-25T00:50:14;102371.00;;;14.80
15079;BMP180;6932;51.438;5.470;2024-01-25T00:52:46;102383.00;;;14.80
15079;BMP180;6932;51.438;5.470;2024-01-25T00:55:12;102396.00;;;14.70
15079;BMP180;6932;51.438;5.470;2024-01-25T00:57:38;102392.00;;;14.70
15079;BMP180;6932;51.438;5.470;2024-01-25T01:00:05;102399.00;;;14.70
15079;BMP180;6932;51.438;5.470;2024-01-25T01:02:39;102396.00;;;14.70
15079;BMP180;6932;51.438;5.470;2024-01-25T01:05:06;102389.00;;;14.60
15079;BMP180;6932;51.438;5.470;2024-01-25T01:07:33;102392.00;;;14.60
15079;BMP180;6932;51.438;5.470;2024-01-25T01:09:58;102387.00;;;14.60
15079;BMP180;6932;51.438;5.470;2024-01-25T01:12:24;102391.00;;;14.60
15079;BMP180;6932;51.438;5.470;2024-01-25T01:14:50;102394.00;;;14.60
15079;BMP180;6932;51.438;5.470;2024-01-25T01:17:16;102400.00;;;14.60
15079;BMP180;6932;51.438;5.470;2024-01-25T01:19:43;102397.00;;;14.50
15079;BMP180;6932;51.438;5.470;2024-01-25T01:22:09;102389.00;;;14.50
15079;BMP180;6932;51.438;5.470;2024-01-25T01:24:35;102400.00;;;14.50
15079;BMP180;6932;51.438;5.470;2024-01-25T01:27:01;102415.00;;;14.50
15079;BMP180;6932;51.438;5.470;2024-01-25T01:29:26;102415.00;;;14.50
15079;BMP180;6932;51.438;5.470;2024-01-25T01:31:52;102405.00;;;14.40
15079;BMP180;6932;51.438;5.470;2024-01-25T01:34:18;102408.00;;;14.40
15079;BMP180;6932;51.438;5.470;2024-01-25T01:36:44;102411.00;;;14.40
15079;BMP180;6932;51.438;5.470;2024-01-25T01:39:10;102402.00;;;14.40
15079;BMP180;6932;51.438;5.470;2024-01-25T01:41:36;102411.00;;;14.40
15079;BMP180;6932;51.438;5.470;2024-01-25T01:44:02;102416.00;;;14.40
15079;BMP180;6932;51.438;5.470;2024-01-25T01:46:36;102410.00;;;14.30
15079;BMP180;6932;51.438;5.470;2024-01-25T01:49:13;102415.00;;;14.30
15079;BMP180;6932;51.438;5.470;2024-01-25T01:51:43;102414.00;;;14.30
15079;BMP180;6932;51.438;5.470;2024-01-25T01:54:09;102410.00;;;14.30
15079;BMP180;6932;51.438;5.470;2024-01-25T01:56:36;102418.00;;;14.30
15079;BMP180;6932;51.438;5.470;2024-01-25T01:59:05;102421.00;;;14.20
15079;BMP180;6932;51.438;5.470;2024-01-25T02:01:32;102443.00;;;14.20
15079;BMP180;6932;51.438;5.470;2024-01-25T02:03:58;102443.00;;;14.20
15079;BMP180;6932;51.438;5.470;2024-01-25T02:06:24;102436.00;;;14.20
15079;BMP180;6932;51.438;5.470;2024-01-25T02:08:50;102428.00;;;14.20
15079;BMP180;6932;51.438;5.470;2024-01-25T02:11:20;102441.00;;;14.10
15079;BMP180;6932;51.438;5.470;2024-01-25T02:13:45;102441.00;;;14.10
15079;BMP180;6932;51.438;5.470;2024-01-25T02:16:12;102448.00;;;14.10
15079;BMP180;6932;51.438;5.470;2024-01-25T02:18:41;102451.00;;;14.10
15079;BMP180;6932;51.438;5.470;2024-01-25T02:21:08;102474.00;;;14.10
15079;BMP180;6932;51.438;5.470;2024-01-25T02:23:34;102463.00;;;14.00
15079;BMP180;6932;51.438;5.470;2024-01-25T02:26:00;102471.00;;;14.00
15079;BMP180;6932;51.438;5.470;2024-01-25T02:28:26;102465.00;;;14.00
15079;BMP180;6932;51.438;5.470;2024-01-25T02:30:52;102470.00;;;14.00
15079;BMP180;6932;51.438;5.470;2024-01-25T02:33:18;102480.00;;;13.90
15079;BMP180;6932;51.438;5.470;2024-01-25T02:35:44;102476.00;;;13.90
15079;BMP180;6932;51.438;5.470;2024-01-25T02:38:09;102485.00;;;13.90
15079;BMP180;6932;51.438;5.470;2024-01-25T02:40:35;102490.00;;;13.90
15079;BMP180;6932;51.438;5.470;2024-01-25T02:43:01;102487.00;;;13.90
15079;BMP180;6932;51.438;5.470;2024-01-25T02:45:27;102483.00;;;13.90
15079;BMP180;6932;51.438;5.470;2024-01-25T02:47:53;102479.00;;;13.80
15079;BMP180;6932;51.438;5.470;2024-01-25T02:50:18;102478.00;;;13.80
15079;BMP180;6932;51.438;5.470;2024-01-25T02:52:44;102463.00;;;13.80
15079;BMP180;6932;51.438;5.470;2024-01-25T02:55:10;102471.00;;;13.80
15079;BMP180;6932;51.438;5.470;2024-01-25T02:57:35;102464.00;;;13.80
15079;BMP180;6932;51.438;5.470;2024-01-25T03:00:01;102468.00;;;13.70
15079;BMP180;6932;51.438;5.470;2024-01-25T03:02:27;102473.00;;;13.70
15079;BMP180;6932;51.438;5.470;2024-01-25T03:04:53;102467.00;;;13.70
15079;BMP180;6932;51.438;5.470;2024-01-25T03:07:18;102465.00;;;13.60
15079;BMP180;6932;51.438;5.470;2024-01-25T03:09:44;102468.00;;;13.60
15079;BMP180;6932;51.438;5.470;2024-01-25T03:12:10;102468.00;;;13.60
15079;BMP180;6932;51.438;5.470;2024-01-25T03:14:36;102472.00;;;13.60
15079;BMP180;6932;51.438;5.470;2024-01-25T03:17:01;102474.00;;;13.60
15079;BMP180;6932;51.438;5.470;2024-01-25T03:19:28;102475.00;;;13.60
15079;BMP180;6932;51.438;5.470;2024-01-25T03:21:54;102472.00;;;13.50
15079;BMP180;6932;51.438;5.470;2024-01-25T03:24:21;102468.00;;;13.50
15079;BMP180;6932;51.438;5.470;2024-01-25T03:26:47;102464.00;;;13.50
15079;BMP180;6932;51.438;5.470;2024-01-25T03:29:14;102453.00;;;13.40
15079;BMP180;6932;51.438;5.470;2024-01-25T03:31:40;102461.00;;;13.40
15079;BMP180;6932;51.438;5.470;2024-01-25T03:34:05;102466.00;;;13.40
15079;BMP180;6932;51.438;5.470;2024-01-25T03:36:32;102476.00;;;13.40
15079;BMP180;6932;51.438;5.470;2024-01-25T03:38:58;102481.00;;;13.40
15079;BMP180;6932;51.438;5.470;2024-01-25T03:41:23;102483.00;;;13.40
15079;BMP180;6932;51.438;5.470;2024-01-25T03:43:52;102479.00;;;13.30
15079;BMP180;6932;51.438;5.470;2024-01-25T03:46:18;102479.00;;;13.30
15079;BMP180;6932;51.438;5.470;2024-01-25T03:48:43;102485.00;;;13.30
15079;BMP180;6932;51.438;5.470;2024-01-25T03:51:09;102484.00;;;13.30
15079;BMP180;6932;51.438;5.470;2024-01-25T03:53:35;102476.00;;;13.30
15079;BMP180;6932;51.438;5.470;2024-01-25T03:56:01;102482.00;;;13.20
15079;BMP180;6932;51.438;5.470;2024-01-25T03:58:26;102484.00;;;13.20
15079;BMP180;6932;51.438;5.470;2024-01-25T04:00:52;102484.00;;;13.20
15079;BMP180;6932;51.438;5.470;2024-01-25T04:03:18;102475.00;;;13.20
15079;BMP180;6932;51.438;5.470;2024-01-25T04:05:44;102475.00;;;13.20
15079;BMP180;6932;51.438;5.470;2024-01-25T04:08:10;102473.00;;;13.10
15079;BMP180;6932;51.438;5.470;2024-01-25T04:10:36;102486.00;;;13.10
15079;BMP180;6932;51.438;5.470;2024-01-25T04:13:02;102496.00;;;13.10
15079;BMP180;6932;51.438;5.470;2024-01-25T04:15:30;102500.00;;;13.10
15079;BMP180;6932;51.438;5.470;2024-01-25T04:17:56;102489.00;;;13.10
15079;BMP180;6932;51.438;5.470;2024-01-25T04:20:22;102493.00;;;13.10
15079;BMP180;6932;51.438;5.470;2024-01-25T04:22:48;102496.00;;;13.10
15079;BMP180;6932;51.438;5.470;2024-01-25T04:25:14;102496.00;;;13.10
15079;BMP180;6932;51.438;5.470;2024-01-25T04:27:40;102481.00;;;13.10
15079;BMP180;6932;51.438;5.470;2024-01-25T04:30:07;102486.00;;;13.00
15079;BMP180;6932;51.438;5.470;2024-01-25T04:32:33;102488.00;;;13.00
15079;BMP180;6932;51.438;5.470;2024-01-25T04:34:59;102487.00;;;13.00
15079;BMP180;6932;51.438;5.470;2024-01-25T04:37:25;102485.00;;;13.00
15079;BMP180;6932;51.438;5.470;2024-01-25T04:39:51;102469.00;;;13.00
15079;BMP180;6932;51.438;5.470;2024-01-25T04:42:17;102469.00;;;13.00
15079;BMP180;6932;51.438;5.470;2024-01-25T04:44:43;102469.00;;;12.90
15079;BMP180;6932;51.438;5.470;2024-01-25T04:47:10;102474.00;;;12.90
15079;BMP180;6932;51.438;5.470;2024-01-25T04:49:36;102478.00;;;12.90
15079;BMP180;6932;51.438;5.470;2024-01-25T04:52:02;102489.00;;;12.90
15079;BMP180;6932;51.438;5.470;2024-01-25T04:54:28;102489.00;;;12.80
15079;BMP180;6932;51.438;5.470;2024-01-25T04:56:53;102473.00;;;12.80
15079;BMP180;6932;51.438;5.470;2024-01-25T04:59:20;102482.00;;;12.80
15079;BMP180;6932;51.438;5.470;2024-01-25T05:01:46;102485.00;;;12.80
15079;BMP180;6932;51.438;5.470;2024-01-25T05:04:12;102480.00;;;12.80
15079;BMP180;6932;51.438;5.470;2024-01-25T05:06:38;102471.00;;;12.80
15079;BMP180;6932;51.438;5.470;2024-01-25T05:09:04;102467.00;;;12.80
15079;BMP180;6932;51.438;5.470;2024-01-25T05:11:29;102466.00;;;12.80
15079;BMP180;6932;51.438;5.470;2024-01-25T05:13:55;102470.00;;;12.70
15079;BMP180;6932;51.438;5.470;2024-01-25T05:16:21;102462.00;;;12.70
15079;BMP180;6932;51.438;5.470;2024-01-25T05:18:47;102469.00;;;12.70
15079;BMP180;6932;51.438;5.470;2024-01-25T05:21:12;102464.00;;;12.70
15079;BMP180;6932;51.438;5.470;2024-01-25T05:23:38;102463.00;;;12.70
15079;BMP180;6932;51.438;5.470;2024-01-25T05:26:05;102462.00;;;12.70
15079;BMP180;6932;51.438;5.470;2024-01-25T05:28:31;102475.00;;;12.60
15079;BMP180;6932;51.438;5.470;2024-01-25T05:30:57;102476.00;;;12.60
15079;BMP180;6932;51.438;5.470;2024-01-25T05:33:23;102471.00;;;12.60
15079;BMP180;6932;51.438;5.470;2024-01-25T05:35:48;102466.00;;;12.60
15079;BMP180;6932;51.438;5.470;2024-01-25T05:38:14;102468.00;;;12.60
15079;BMP180;6932;51.438;5.470;2024-01-25T05:40:40;102472.00;;;12.60
15079;BMP180;6932;51.438;5.470;2024-01-25T05:43:05;102467.00;;;12.50
15079;BMP180;6932;51.438;5.470;2024-01-25T05:45:31;102478.00;;;12.50
15079;BMP180;6932;51.438;5.470;2024-01-25T05:47:57;102484.00;;;12.50
15079;BMP180;6932;51.438;5.470;2024-01-25T05:50:23;102488.00;;;12.50
15079;BMP180;6932;51.438;5.470;2024-01-25T05:52:49;102483.00;;;12.50
15079;BMP180;6932;51.438;5.470;2024-01-25T05:55:14;102495.00;;;12.50
15079;BMP180;6932;51.438;5.470;2024-01-25T05:57:43;102491.00;;;12.50
15079;BMP180;6932;51.438;5.470;2024-01-25T06:00:12;102490.00;;;12.50
15079;BMP180;6932;51.438;5.470;2024-01-25T06:02:38;102492.00;;;12.40
15079;BMP180;6932;51.438;5.470;2024-01-25T06:05:04;102481.00;;;12.40
15079;BMP180;6932;51.438;5.470;2024-01-25T06:07:30;102488.00;;;12.40
15079;BMP180;6932;51.438;5.470;2024-01-25T06:09:56;102484.00;;;12.40
15079;BMP180;6932;51.438;5.470;2024-01-25T06:12:22;102490.00;;;12.40
15079;BMP180;6932;51.438;5.470;2024-01-25T06:14:47;102486.00;;;12.40
15079;BMP180;6932;51.438;5.470;2024-01-25T06:17:13;102484.00;;;12.40
15079;BMP180;6932;51.438;5.470;2024-01-25T06:19:39;102491.00;;;12.40
15079;BMP180;6932;51.438;5.470;2024-01-25T06:22:04;102497.00;;;12.40
15079;BMP180;6932;51.438;5.470;2024-01-25T06:24:30;102487.00;;;12.40
15079;BMP180;6932;51.438;5.470;2024-01-25T06:26:56;102494.00;;;12.40
15079;BMP180;6932;51.438;5.470;2024-01-25T06:29:22;102502.00;;;12.40
15079;BMP180;6932;51.438;5.470;2024-01-25T06:31:48;102508.00;;;12.30
15079;BMP180;6932;51.438;5.470;2024-01-25T06:34:14;102504.00;;;12.30
15079;BMP180;6932;51.438;5.470;2024-01-25T06:36:40;102506.00;;;12.30
15079;BMP180;6932;51.438;5.470;2024-01-25T06:39:05;102509.00;;;12.30
15079;BMP180;6932;51.438;5.470;2024-01-25T06:41:32;102329.00;;;12.30
15079;BMP180;6932;51.438;5.470;2024-01-25T06:43:59;102340.00;;;11.90
15079;BMP180;6932;51.438;5.470;2024-01-25T06:46:25;102328.00;;;11.60
15079;BMP180;6932;51.438;5.470;2024-01-25T06:48:51;102504.00;;;11.30
15079;BMP180;6932;51.438;5.470;2024-01-25T06:51:17;102495.00;;;11.40
15079;BMP180;6932;51.438;5.470;2024-01-25T06:53:43;102497.00;;;11.50
15079;BMP180;6932;51.438;5.470;2024-01-25T06:56:09;102506.00;;;11.60
15079;BMP180;6932;51.438;5.470;2024-01-25T06:58:34;102514.00;;;11.70
15079;BMP180;6932;51.438;5.470;2024-01-25T07:01:00;102510.00;;;11.80
15079;BMP180;6932;51.438;5.470;2024-01-25T07:03:26;102512.00;;;11.80
15079;BMP180;6932;51.438;5.470;2024-01-25T07:05:52;102517.00;;;11.90
15079;BMP180;6932;51.438;5.470;2024-01-25T07:08:18;102508.00;;;12.00
15079;BMP180;6932;51.438;5.470;2024-01-25T07:10:45;102500.00;;;12.00
15079;BMP180;6932;51.438;5.470;2024-01-25T07:13:10;102500.00;;;12.00
15079;BMP180;6932;51.438;5.470;2024-01-25T07:15:36;102511.00;;;12.00
15079;BMP180;6932;51.438;5.470;2024-01-25T07:18:02;102517.00;;;12.10
15079;BMP180;6932;51.438;5.470;2024-01-25T07:20:29;102510.00;;;12.10
15079;BMP180;6932;51.438;5.470;2024-01-25T07:22:54;102515.00;;;12.10
15079;BMP180;6932;51.438;5.470;2024-01-25T07:25:20;102512.00;;;12.10
15079;BMP180;6932;51.438;5.470;2024-01-25T07:27:46;102507.00;;;12.10
15079;BMP180;6932;51.438;5.470;2024-01-25T07:30:13;102520.00;;;12.10
15079;BMP180;6932;51.438;5.470;2024-01-25T07:32:39;102520.00;;;12.10
15079;BMP180;6932;51.438;5.470;2024-01-25T07:35:08;102519.00;;;12.10
15079;BMP180;6932;51.438;5.470;2024-01-25T07:37:35;102515.00;;;12.10
15079;BMP180;6932;51.438;5.470;2024-01-25T07:40:01;102514.00;;;12.10
15079;BMP180;6932;51.438;5.470;2024-01-25T07:42:29;102516.00;;;12.10
15079;BMP180;6932;51.438;5.470;2024-01-25T07:44:55;102521.00;;;12.10
15079;BMP180;6932;51.438;5.470;2024-01-25T07:47:21;102524.00;;;12.10
15079;BMP180;6932;51.438;5.470;2024-01-25T07:49:47;102523.00;;;12.10
15079;BMP180;6932;51.438;5.470;2024-01-25T07:52:13;102526.00;;;12.10
15079;BMP180;6932;51.438;5.470;2024-01-25T07:54:38;102522.00;;;12.20
15079;BMP180;6932;51.438;5.470;2024-01-25T07:57:04;102521.00;;;12.20
15079;BMP180;6932;51.438;5.470;2024-01-25T07:59:30;102520.00;;;12.20
15079;BMP180;6932;51.438;5.470;2024-01-25T08:01:55;102520.00;;;12.20
15079;BMP180;6932;51.438;5.470;2024-01-25T08:04:21;102524.00;;;12.30
15079;BMP180;6932;51.438;5.470;2024-01-25T08:06:47;102531.00;;;12.30
15079;BMP180;6932;51.438;5.470;2024-01-25T08:09:13;102533.00;;;12.30
15079;BMP180;6932;51.438;5.470;2024-01-25T08:11:39;102538.00;;;12.30
15079;BMP180;6932;51.438;5.470;2024-01-25T08:14:04;102537.00;;;12.20
15079;BMP180;6932;51.438;5.470;2024-01-25T08:16:31;102543.00;;;12.20
15079;BMP180;6932;51.438;5.470;2024-01-25T08:18:56;102544.00;;;12.20
15079;BMP180;6932;51.438;5.470;2024-01-25T08:21:24;102538.00;;;12.20
15079;BMP180;6932;51.438;5.470;2024-01-25T08:23:49;102544.00;;;12.20
15079;BMP180;6932;51.438;5.470;2024-01-25T08:26:15;102551.00;;;12.20
15079;BMP180;6932;51.438;5.470;2024-01-25T08:28:42;102534.00;;;12.10
15079;BMP180;6932;51.438;5.470;2024-01-25T08:31:10;102522.00;;;12.10
15079;BMP180;6932;51.438;5.470;2024-01-25T08:33:36;102498.00;;;12.10
15079;BMP180;6932;51.438;5.470;2024-01-25T08:36:02;102493.00;;;12.10
15079;BMP180;6932;51.438;5.470;2024-01-25T08:38:28;102494.00;;;12.10
15079;BMP180;6932;51.438;5.470;2024-01-25T08:40:54;102504.00;;;12.10
15079;BMP180;6932;51.438;5.470;2024-01-25T08:43:20;102514.00;;;12.10
15079;BMP180;6932;51.438;5.470;2024-01-25T08:45:46;102520.00;;;12.10
15079;BMP180;6932;51.438;5.470;2024-01-25T08:48:11;102541.00;;;12.10
15079;BMP180;6932;51.438;5.470;2024-01-25T08:50:39;102551.00;;;12.20
15079;BMP180;6932;51.438;5.470;2024-01-25T08:53:05;102552.00;;;12.20
15079;BMP180;6932;51.438;5.470;2024-01-25T08:55:31;102538.00;;;12.20
15079;BMP180;6932;51.438;5.470;2024-01-25T08:57:57;102541.00;;;12.20
15079;BMP180;6932;51.438;5.470;2024-01-25T09:00:23;102529.00;;;12.20
15079;BMP180;6932;51.438;5.470;2024-01-25T09:02:48;102525.00;;;12.20
15079;BMP180;6932;51.438;5.470;2024-01-25T09:05:14;102546.00;;;12.20
15079;BMP180;6932;51.438;5.470;2024-01-25T09:07:41;102539.00;;;12.20
15079;BMP180;6932;51.438;5.470;2024-01-25T09:10:07;102544.00;;;12.30
15079;BMP180;6932;51.438;5.470;2024-01-25T09:12:35;102550.00;;;12.30
15079;BMP180;6932;51.438;5.470;2024-01-25T09:15:01;102534.00;;;12.30
15079;BMP180;6932;51.438;5.470;2024-01-25T09:17:28;102542.00;;;12.30
15079;BMP180;6932;51.438;5.470;2024-01-25T09:19:53;102543.00;;;12.30
15079;BMP180;6932;51.438;5.470;2024-01-25T11:35:00;102252.00;;;12.50
15079;BMP180;6932;51.438;5.470;2024-01-25T11:37:26;102252.00;;;12.40
15079;BMP180;6932;51.438;5.470;2024-01-25T11:39:52;102253.00;;;12.40
15079;BMP180;6932;51.438;5.470;2024-01-25T11:42:18;102251.00;;;12.50
15079;BMP180;6932;51.438;5.470;2024-01-25T11:44:43;102247.00;;;12.40
15079;BMP180;6932;51.438;5.470;2024-01-25T11:47:09;102244.00;;;12.40
15079;BMP180;6932;51.438;5.470;2024-01-25T11:49:36;102235.00;;;12.40
15079;BMP180;6932;51.438;5.470;2024-01-25T11:52:01;102248.00;;;12.40
15079;BMP180;6932;51.438;5.470;2024-01-25T11:54:29;102260.00;;;12.40
15079;BMP180;6932;51.438;5.470;2024-01-25T11:56:55;102253.00;;;12.40
15079;BMP180;6932;51.438;5.470;2024-01-25T11:59:21;102250.00;;;12.40
15079;BMP180;6932;51.438;5.470;2024-01-25T12:01:47;102256.00;;;12.40
15079;BMP180;6932;51.438;5.470;2024-01-25T12:04:14;102264.00;;;12.40
15079;BMP180;6932;51.438;5.470;2024-01-25T12:06:40;102260.00;;;12.40
15079;BMP180;6932;51.438;5.470;2024-01-25T12:09:08;102252.00;;;12.40
15079;BMP180;6932;51.438;5.470;2024-01-25T12:11:34;102250.00;;;12.50
15079;BMP180;6932;51.438;5.470;2024-01-25T12:14:00;102238.00;;;12.50
15079;BMP180;6932;51.438;5.470;2024-01-25T12:16:25;102232.00;;;12.50
15079;BMP180;6932;51.438;5.470;2024-01-25T12:18:51;102221.00;;;12.50
15079;BMP180;6932;51.438;5.470;2024-01-25T12:21:18;102196.00;;;12.50
15079;BMP180;6932;51.438;5.470;2024-01-25T12:23:44;102180.00;;;12.50
15079;BMP180;6932;51.438;5.470;2024-01-25T12:26:10;102172.00;;;12.50
15079;BMP180;6932;51.438;5.470;2024-01-25T12:28:37;102186.00;;;12.60
15079;BMP180;6932;51.438;5.470;2024-01-25T12:31:05;102178.00;;;12.60
15079;BMP180;6932;51.438;5.470;2024-01-25T12:33:33;102349.00;;;12.70
15079;BMP180;6932;51.438;5.470;2024-01-25T12:35:58;102352.00;;;13.00
15079;BMP180;6932;51.438;5.470;2024-01-25T12:38:25;102361.00;;;13.20
15079;BMP180;6932;51.438;5.470;2024-01-25T12:40:52;102355.00;;;13.40
15079;BMP180;6932;51.438;5.470;2024-01-25T12:43:19;102367.00;;;13.60
15079;BMP180;6932;51.438;5.470;2024-01-25T12:45:47;102351.00;;;13.70
15079;BMP180;6932;51.438;5.470;2024-01-25T12:48:13;102351.00;;;13.80
15079;BMP180;6932;51.438;5.470;2024-01-25T12:50:38;102356.00;;;13.90
15079;BMP180;6932;51.438;5.470;2024-01-25T12:53:06;102344.00;;;14.00
15079;BMP180;6932;51.438;5.470;2024-01-25T12:55:32;102351.00;;;14.10
15079;BMP180;6932;51.438;5.470;2024-01-25T12:57:59;102350.00;;;14.20
15079;BMP180;6932;51.438;5.470;2024-01-25T13:00:25;102335.00;;;14.20
15079;BMP180;6932;51.438;5.470;2024-01-25T13:02:51;102324.00;;;14.30
15079;BMP180;6932;51.438;5.470;2024-01-25T13:05:17;102325.00;;;14.30
15079;BMP180;6932;51.438;5.470;2024-01-25T13:07:43;102321.00;;;14.30
15079;BMP180;6932;51.438;5.470;2024-01-25T13:10:09;102325.00;;;14.40
15079;BMP180;6932;51.438;5.470;2024-01-25T13:12:40;102303.00;;;14.40
15079;BMP180;6932;51.438;5.470;2024-01-25T13:15:06;102308.00;;;14.40
15079;BMP180;6932;51.438;5.470;2024-01-25T13:17:35;102306.00;;;14.40
15079;BMP180;6932;51.438;5.470;2024-01-25T13:20:04;102309.00;;;14.40
15079;BMP180;6932;51.438;5.470;2024-01-25T13:22:33;102314.00;;;14.50
15079;BMP180;6932;51.438;5.470;2024-01-25T13:25:00;102307.00;;;14.50
15079;BMP180;6932;51.438;5.470;2024-01-25T13:27:27;102305.00;;;14.50
15079;BMP180;6932;51.438;5.470;2024-01-25T13:29:53;102307.00;;;14.50
15079;BMP180;6932;51.438;5.470;2024-01-25T13:32:19;102306.00;;;14.50
15079;BMP180;6932;51.438;5.470;2024-01-25T13:34:45;102307.00;;;14.50
15079;BMP180;6932;51.438;5.470;2024-01-25T13:37:11;102306.00;;;14.50
15079;BMP180;6932;51.438;5.470;2024-01-25T13:39:38;102300.00;;;14.50
15079;BMP180;6932;51.438;5.470;2024-01-25T13:42:04;102287.00;;;14.50
15079;BMP180;6932;51.438;5.470;2024-01-25T13:44:29;102285.00;;;14.50
15079;BMP180;6932;51.438;5.470;2024-01-25T13:46:55;102290.00;;;14.50
15079;BMP180;6932;51.438;5.470;2024-01-25T13:49:22;102282.00;;;14.50
15079;BMP180;6932;51.438;5.470;2024-01-25T13:51:47;102287.00;;;14.50
15079;BMP180;6932;51.438;5.470;2024-01-25T13:54:13;102279.00;;;14.50
15079;BMP180;6932;51.438;5.470;2024-01-25T13:56:39;102285.00;;;14.50
15079;BMP180;6932;51.438;5.470;2024-01-25T13:59:06;102279.00;;;14.50
15079;BMP180;6932;51.438;5.470;2024-01-25T14:01:32;102264.00;;;14.50
15079;BMP180;6932;51.438;5.470;2024-01-25T14:03:58;102251.00;;;14.50
15079;BMP180;6932;51.438;5.470;2024-01-25T14:06:24;102237.00;;;14.50
15079;BMP180;6932;51.438;5.470;2024-01-25T14:08:50;102249.00;;;14.50
15079;BMP180;6932;51.438;5.470;2024-01-25T14:11:16;102241.00;;;14.50
15079;BMP180;6932;51.438;5.470;2024-01-25T14:13:42;102239.00;;;14.50
15079;BMP180;6932;51.438;5.470;2024-01-25T14:16:08;102240.00;;;14.50
15079;BMP180;6932;51.438;5.470;2024-01-25T14:18:39;102238.00;;;14.50
15079;BMP180;6932;51.438;5.470;2024-01-25T14:21:05;102238.00;;;14.50
15079;BMP180;6932;51.438;5.470;2024-01-25T14:23:32;102223.00;;;14.40
15079;BMP180;6932;51.438;5.470;2024-01-25T14:25:57;102225.00;;;14.40
15079;BMP180;6932;51.438;5.470;2024-01-25T14:28:23;102235.00;;;14.40
15079;BMP180;6932;51.438;5.470;2024-01-25T14:30:49;102233.00;;;14.40
15079;BMP180;6932;51.438;5.470;2024-01-25T14:33:14;102224.00;;;14.40
15079;BMP180;6932;51.438;5.470;2024-01-25T14:35:40;102227.00;;;14.40
15079;BMP180;6932;51.438;5.470;2024-01-25T14:38:06;102217.00;;;14.40
15079;BMP180;6932;51.438;5.470;2024-01-25T14:40:32;102221.00;;;14.30
15079;BMP180;6932;51.438;5.470;2024-01-25T14:42:57;102223.00;;;14.30
15079;BMP180;6932;51.438;5.470;2024-01-25T14:45:23;102220.00;;;14.30
15079;BMP180;6932;51.438;5.470;2024-01-25T14:47:49;102225.00;;;14.30
15079;BMP180;6932;51.438;5.470;2024-01-25T14:50:15;102218.00;;;14.30
15079;BMP180;6932;51.438;5.470;2024-01-25T14:52:40;102223.00;;;14.30
15079;BMP180;6932;51.438;5.470;2024-01-25T14:55:07;102206.00;;;14.30
15079;BMP180;6932;51.438;5.470;2024-01-25T14:57:33;102213.00;;;14.30
15079;BMP180;6932;51.438;5.470;2024-01-25T15:00:00;102215.00;;;14.30
15079;BMP180;6932;51.438;5.470;2024-01-25T15:02:26;102210.00;;;14.30
15079;BMP180;6932;51.438;5.470;2024-01-25T15:04:51;102203.00;;;14.30
15079;BMP180;6932;51.438;5.470;2024-01-25T15:07:17;102200.00;;;14.30
15079;BMP180;6932;51.438;5.470;2024-01-25T15:09:49;102206.00;;;14.30
15079;BMP180;6932;51.438;5.470;2024-01-25T15:12:15;102207.00;;;14.30
15079;BMP180;6932;51.438;5.470;2024-01-25T15:14:41;102200.00;;;14.40
15079;BMP180;6932;51.438;5.470;2024-01-25T15:17:07;102189.00;;;14.40
15079;BMP180;6932;51.438;5.470;2024-01-25T15:19:33;102200.00;;;14.40
15079;BMP180;6932;51.438;5.470;2024-01-25T15:21:59;102189.00;;;14.40
15079;BMP180;6932;51.438;5.470;2024-01-25T15:24:24;102190.00;;;14.40
15079;BMP180;6932;51.438;5.470;2024-01-25T15:26:52;102186.00;;;14.40
15079;BMP180;6932;51.438;5.470;2024-01-25T15:29:17;102178.00;;;14.40
15079;BMP180;6932;51.438;5.470;2024-01-25T15:31:43;102171.00;;;14.40
15079;BMP180;6932;51.438;5.470;2024-01-25T15:34:08;102164.00;;;14.40
15079;BMP180;6932;51.438;5.470;2024-01-25T15:36:34;102162.00;;;14.40
15079;BMP180;6932;51.438;5.470;2024-01-25T15:39:01;102159.00;;;14.40
15079;BMP180;6932;51.438;5.470;2024-01-25T15:41:29;102152.00;;;14.40
15079;BMP180;6932;51.438;5.470;2024-01-25T15:43:56;102154.00;;;14.40
15079;BMP180;6932;51.438;5.470;2024-01-25T15:46:22;102152.00;;;14.40
15079;BMP180;6932;51.438;5.470;2024-01-25T15:48:48;102159.00;;;14.40
15079;BMP180;6932;51.438;5.470;2024-01-25T15:51:16;102162.00;;;14.40
15079;BMP180;6932;51.438;5.470;2024-01-25T15:53:42;102165.00;;;14.50
15079;BMP180;6932;51.438;5.470;2024-01-25T15:56:07;102160.00;;;14.40
15079;BMP180;6932;51.438;5.470;2024-01-25T15:58:33;102153.00;;;14.50
15079;BMP180;6932;51.438;5.470;2024-01-25T16:00:59;102156.00;;;14.50
15079;BMP180;6932;51.438;5.470;2024-01-25T16:03:25;102156.00;;;14.50
15079;BMP180;6932;51.438;5.470;2024-01-25T16:05:50;102166.00;;;14.50
15079;BMP180;6932;51.438;5.470;2024-01-25T16:08:20;102166.00;;;14.50
15079;BMP180;6932;51.438;5.470;2024-01-25T16:10:46;102159.00;;;14.50
15079;BMP180;6932;51.438;5.470;2024-01-25T16:13:12;102157.00;;;14.50
15079;BMP180;6932;51.438;5.470;2024-01-25T16:15:37;102160.00;;;14.50